Tropical Cyclones
[Index]
Main Index Home Page Stock Weather Photos Extreme Storms Discussion Storm News and Storm Chasing Reports Tropical Cyclones / Hurricanes / Typhoons Weather Data and Links Wild Fires / Bushfires Weather Observation Techniques Weather Picture Catalogue Tornado Pictures and Reports Stock Video Footage and DVDs for sale
Season 1988-1989 Tropical Cyclone ERNIE Track Map
Season 1988-1989 Summaries: [BoM-AU] [JTWC-AU] [JTWC-SIO] [JTWC-SPAC] [JTWC-SH]
<<- Previous TC | JTWC 1988-1989 Season | Next TC ->>

click for intensity scale information  Lat/long Grid: Show Hide

 Date Labels: Show Hide

Joint Typhoon Warning Centre Cyclone Data

Name: ERNIE

06 May 1989 00:00 UTC to 13 May 1989 00:00 UTC

    date/time    lat    long     hPa   cat  kts
1989-05-06 00   12.9   177.8                  20          
1989-05-06 06   12.9   176.2                  20          
1989-05-06 12   13.0   174.7                  20          
1989-05-06 18   12.7   173.0                  25          
1989-05-07 00   12.5   171.4                  25          
1989-05-07 06   12.4   169.9                  30          
1989-05-07 12   12.3   168.5                  30          
1989-05-07 18   12.4   167.3                  30          
1989-05-08 00   12.2   166.1                  35          
1989-05-08 06   11.9   164.9                  35          
1989-05-08 12   11.7   163.7                  30          
1989-05-08 18   11.9   162.4                  30          
1989-05-09 00   12.4   161.3                  30          
1989-05-09 06   12.6   160.1                  30          
1989-05-09 12   12.8   158.7                  25          
1989-05-09 18   12.8   157.1                  25          
1989-05-10 00   12.8   155.5                  25          
1989-05-10 06   12.7   153.9                  25          
1989-05-10 12   12.5   152.6                  25          
1989-05-10 18   12.4   151.5                  30          
1989-05-11 00   12.3   151.0                  25          
1989-05-11 06   12.5   150.8                  30          
1989-05-11 12   12.7   150.7                  30          
1989-05-11 18   12.7   150.6                  30          
1989-05-12 00   12.8   150.4                  30          
1989-05-12 06   12.6   150.2                  30          
1989-05-12 12   12.3   149.9                  25          
1989-05-12 18   12.1   149.3                  25          
1989-05-13 00   12.1   148.4                  25          
Winds are 1-min average.

Tropical cyclone tracks developed by Michael Bath using data from the Joint Typhoon Warning Centre Best Tracks and Google Maps.


[Australian Severe Weather index] [Copyright Notice] [Email Contacts] [Search This Site] [Privacy Policy]
Document: tropical_cyclone_ernie.htm Updated: 18 September 2016